Time;durP1;ratioP1;P1;durP2;ratioP2;P2;SDS_P1;SDS_P2;PMS_P1;PMS_P2;Temp;Humidity;BMP_temperature;BMP_pressure;BME280_temperature;BME280_humidity;BME280_pressure;Samples;Min_cycle;Max_cycle;Signal;HPM_P1;HPM_P2
2022/04/25 00:00:04;;;;;;;9.20;5.60;;;;;;;8.85;71.55;100092.28;4991619;28;20210;-70
2022/04/25 00:02:31;;;;;;;10.20;5.40;;;;;;;8.82;71.83;100089.81;4991270;28;20217;-70
2022/04/25 00:04:57;;;;;;;8.57;5.60;;;;;;;8.78;71.55;100089.16;4991984;28;20572;-70
2022/04/25 00:07:24;;;;;;;8.93;5.60;;;;;;;8.75;71.87;100099.13;4992022;28;20208;-71
2022/04/25 00:09:51;;;;;;;11.10;5.10;;;;;;;8.72;72.38;100099.34;4991688;28;20689;-73
2022/04/25 00:12:18;;;;;;;9.03;5.60;;;;;;;8.67;72.40;100095.16;4991547;28;20330;-70
2022/04/25 00:14:45;;;;;;;9.13;5.73;;;;;;;8.65;72.64;100098.84;4991129;28;20771;-71
2022/04/25 00:17:11;;;;;;;7.83;4.83;;;;;;;8.64;72.82;100094.50;4991808;28;20207;-70
2022/04/25 00:19:38;;;;;;;10.00;6.07;;;;;;;8.62;72.14;100093.75;4991395;28;20211;-70
2022/04/25 00:22:05;;;;;;;8.97;5.33;;;;;;;8.58;72.16;100095.78;4991438;28;20242;-71
2022/04/25 00:24:31;;;;;;;6.67;5.57;;;;;;;8.56;72.74;100097.66;4988785;28;20253;-70
2022/04/25 00:26:58;;;;;;;8.27;5.40;;;;;;;8.55;72.96;100105.72;4990158;28;20223;-70
2022/04/25 00:29:26;;;;;;;6.07;5.00;;;;;;;8.54;73.23;100106.66;4990274;28;20694;-71
2022/04/25 00:31:53;;;;;;;8.53;5.47;;;;;;;8.51;72.77;100098.91;4988491;28;20204;-70
2022/04/25 00:34:19;;;;;;;9.97;5.00;;;;;;;8.47;72.73;100098.22;4976158;28;20702;-71
2022/04/25 00:36:45;;;;;;;11.27;5.60;;;;;;;8.45;72.64;100091.31;4985679;28;20219;-70
2022/04/25 00:39:12;;;;;;;8.00;5.73;;;;;;;8.43;73.46;100090.56;4978721;28;20749;-70
2022/04/25 00:41:40;;;;;;;10.17;5.63;;;;;;;8.42;72.84;100087.03;4986915;28;20214;-71
2022/04/25 00:44:06;;;;;;;9.40;5.27;;;;;;;8.39;73.15;100092.56;4990964;28;20219;-70
2022/04/25 00:46:36;;;;;;;8.63;5.90;;;;;;;8.37;73.36;100089.16;4990610;28;20202;-71
2022/04/25 00:49:02;;;;;;;9.80;5.60;;;;;;;8.33;72.89;100088.50;4989090;28;20203;-71
2022/04/25 00:51:29;;;;;;;9.30;5.60;;;;;;;8.31;73.21;100082.41;4989842;28;20199;-70
2022/04/25 00:53:56;;;;;;;10.60;5.77;;;;;;;8.28;73.79;100079.94;4997928;23;20228;-83
2022/04/25 00:56:24;;;;;;;8.93;5.97;;;;;;;8.27;73.59;100087.97;5003267;28;20653;-82
2022/04/25 00:58:51;;;;;;;11.43;5.83;;;;;;;8.25;73.62;100087.22;4999111;28;20200;-82
2022/04/25 01:01:18;;;;;;;11.13;5.37;;;;;;;8.23;73.92;100097.97;4992043;28;20234;-83
2022/04/25 01:03:46;;;;;;;9.73;5.90;;;;;;;8.22;74.42;100103.34;5003451;28;20227;-82
2022/04/25 01:06:12;;;;;;;8.97;5.70;;;;;;;8.21;73.82;100097.19;4997722;28;20258;-83
2022/04/25 01:08:39;;;;;;;9.53;5.33;;;;;;;8.20;74.34;100095.50;4993174;28;20395;-83
2022/04/25 01:11:06;;;;;;;9.87;5.60;;;;;;;8.19;74.46;100092.94;4985866;28;20219;-84
2022/04/25 01:13:33;;;;;;;9.70;6.03;;;;;;;8.18;74.45;100100.03;4988413;28;21696;-84
2022/04/25 01:16:00;;;;;;;8.80;5.93;;;;;;;8.18;74.20;100110.66;4983595;28;20228;-83
2022/04/25 01:18:26;;;;;;;9.13;6.00;;;;;;;8.16;74.58;100099.28;4988500;28;20218;-84
2022/04/25 01:20:58;;;;;;;11.43;6.00;;;;;;;8.16;74.57;100104.59;4995698;28;20218;-83
2022/04/25 01:28:52;;;;;;;10.30;6.00;;;;;;;8.15;75.15;100113.50;4985484;28;20224;-83
2022/04/25 01:31:18;;;;;;;9.17;6.00;;;;;;;8.14;75.77;100106.47;4985549;28;20218;-83
2022/04/25 01:33:45;;;;;;;10.93;6.17;;;;;;;8.13;75.39;100114.53;4983501;28;20225;-82
2022/04/25 01:36:12;;;;;;;11.03;6.10;;;;;;;8.12;75.60;100118.13;4983576;28;20223;-82
2022/04/25 01:38:40;;;;;;;10.67;6.40;;;;;;;8.10;75.34;100122.66;4985049;28;20214;-83
2022/04/25 01:41:07;;;;;;;9.07;5.80;;;;;;;8.08;75.26;100117.44;4991033;28;20208;-82
2022/04/25 01:43:36;;;;;;;11.27;5.73;;;;;;;8.08;75.73;100117.44;4985163;28;20224;-82
2022/04/25 01:46:03;;;;;;;9.03;5.70;;;;;;;8.07;75.91;100115.75;4985215;28;20254;-83
2022/04/25 01:48:30;;;;;;;12.63;6.50;;;;;;;8.07;75.99;100120.19;4992618;28;20199;-82
2022/04/25 01:50:57;;;;;;;7.37;5.83;;;;;;;8.05;76.01;100116.81;5000397;28;20230;-83
2022/04/25 01:53:23;;;;;;;9.50;6.60;;;;;;;8.05;76.04;100127.41;5003526;28;20254;-82
2022/04/25 01:55:52;;;;;;;9.47;6.00;;;;;;;8.04;75.93;100123.06;5002257;28;20293;-82
2022/04/25 01:58:19;;;;;;;9.20;5.83;;;;;;;8.02;76.00;100121.34;4985550;28;20739;-82
2022/04/25 02:00:45;;;;;;;11.10;6.50;;;;;;;8.02;76.31;100121.34;4979018;28;20212;-82
2022/04/25 02:03:12;;;;;;;11.63;6.23;;;;;;;8.02;76.08;100120.50;4985784;28;20220;-83
2022/04/25 02:05:39;;;;;;;9.23;5.73;;;;;;;8.04;75.88;100128.38;4981182;28;20208;-84
2022/04/25 02:08:06;;;;;;;11.37;6.37;;;;;;;8.00;76.56;100119.75;4982893;28;20207;-83
2022/04/25 02:10:33;;;;;;;9.10;6.57;;;;;;;8.02;76.59;100118.69;4982267;28;20297;-82
2022/04/25 02:13:01;;;;;;;9.97;5.57;;;;;;;8.03;76.22;100122.22;4991766;28;20296;-82
2022/04/25 02:15:28;;;;;;;10.70;6.20;;;;;;;8.02;76.79;100117.84;4981889;28;20294;-83
2022/04/25 02:17:58;;;;;;;11.63;6.50;;;;;;;8.03;76.64;100116.91;4979051;28;20216;-83
2022/04/25 02:20:24;;;;;;;11.77;6.27;;;;;;;8.04;76.36;100118.63;4997632;28;20204;-84
2022/04/25 02:22:51;;;;;;;11.07;6.73;;;;;;;8.04;77.16;100109.81;4998043;28;20287;-82
2022/04/25 02:25:17;;;;;;;12.30;7.00;;;;;;;8.03;76.75;100108.94;4998976;28;20242;-83
2022/04/25 02:27:44;;;;;;;9.97;6.57;;;;;;;8.03;77.12;100116.91;4998022;28;20203;-84
2022/04/25 02:30:13;;;;;;;11.77;6.90;;;;;;;8.03;77.69;100114.25;4996911;28;20218;-82
2022/04/25 02:32:39;;;;;;;10.33;7.13;;;;;;;8.05;77.46;100111.50;4995880;28;20287;-83
2022/04/25 02:35:07;;;;;;;9.37;6.80;;;;;;;8.05;77.67;100116.81;4996451;28;20319;-83
2022/04/25 02:37:33;;;;;;;8.93;6.87;;;;;;;8.04;77.59;100113.31;4982564;28;20214;-84
2022/04/25 02:40:00;;;;;;;8.47;6.30;;;;;;;8.04;78.04;100118.63;4980225;28;20215;-85
2022/04/25 02:42:26;;;;;;;10.07;6.40;;;;;;;8.00;78.57;100114.44;4992873;28;20209;-84
2022/04/25 02:44:53;;;;;;;11.53;6.70;;;;;;;7.97;78.24;100127.88;4980146;28;20256;-83
2022/04/25 02:47:21;;;;;;;14.50;6.90;;;;;;;7.93;78.91;100121.03;4978311;28;20233;-83
2022/04/25 02:49:47;;;;;;;8.63;6.10;;;;;;;7.89;78.96;100125.69;4989505;28;20204;-84
2022/04/25 02:52:14;;;;;;;10.87;7.40;;;;;;;7.88;78.89;100131.09;4979793;28;20224;-83
2022/04/25 02:54:40;;;;;;;12.70;7.53;;;;;;;7.86;79.07;100128.53;4979339;28;20279;-84
2022/04/25 02:57:07;;;;;;;10.77;6.40;;;;;;;7.86;79.14;100130.34;4979164;28;20238;-83
2022/04/25 02:59:33;;;;;;;8.07;5.83;;;;;;;7.83;79.28;100133.16;4981666;28;20258;-84
2022/04/25 03:02:00;;;;;;;13.57;7.37;;;;;;;7.81;80.09;100129.75;4985820;28;20660;-83
2022/04/25 03:04:28;;;;;;;7.77;6.20;;;;;;;7.79;80.26;100131.63;4985797;28;20299;-83
2022/04/25 03:06:54;;;;;;;8.97;6.40;;;;;;;7.77;80.03;100130.88;4999153;28;20211;-84
2022/04/25 03:09:21;;;;;;;10.50;7.13;;;;;;;7.75;79.83;100135.41;4996656;28;20559;-83
2022/04/25 03:11:50;;;;;;;11.07;7.57;;;;;;;7.73;80.64;100132.00;4981007;28;20620;-84
2022/04/25 03:14:16;;;;;;;11.93;7.60;;;;;;;7.71;80.32;100133.88;4998623;28;20255;-85
2022/04/25 03:16:43;;;;;;;12.27;7.47;;;;;;;7.70;80.28;100137.50;5000225;28;20334;-84
2022/04/25 03:19:09;;;;;;;12.27;7.50;;;;;;;7.69;80.81;100139.31;5000031;28;20214;-85
2022/04/25 03:21:37;;;;;;;9.70;7.93;;;;;;;7.69;81.01;100146.41;4982062;28;20208;-83
2022/04/25 03:24:04;;;;;;;11.50;8.37;;;;;;;7.68;80.59;100134.09;4975504;28;20769;-84
2022/04/25 03:26:31;;;;;;;11.47;8.17;;;;;;;7.67;80.79;100141.19;4973148;28;20215;-82
2022/04/25 03:28:58;;;;;;;9.27;7.77;;;;;;;7.68;81.21;100139.38;4975640;28;20215;-84
2022/04/25 03:31:24;;;;;;;13.20;7.53;;;;;;;7.66;80.96;100137.69;4976983;28;20788;-84
2022/04/25 03:33:51;;;;;;;10.90;7.57;;;;;;;7.68;81.47;100147.34;4978501;28;20228;-84
2022/04/25 03:36:17;;;;;;;12.37;8.27;;;;;;;7.69;81.98;100146.41;4986692;28;20227;-81
2022/04/25 03:38:45;;;;;;;8.77;6.87;;;;;;;7.69;81.47;100144.59;4989370;28;20204;-82
2022/04/25 03:41:11;;;;;;;9.70;7.13;;;;;;;7.67;81.77;100149.13;4975502;28;20209;-83
2022/04/25 03:43:38;;;;;;;8.87;6.87;;;;;;;7.68;82.12;100144.69;4970870;28;20247;-82
2022/04/25 03:46:05;;;;;;;8.77;7.10;;;;;;;7.65;82.13;100148.38;4963788;28;20695;-82
2022/04/25 03:48:31;;;;;;;8.27;7.37;;;;;;;7.65;81.95;100156.31;4972151;28;20714;-82
2022/04/25 03:50:58;;;;;;;8.97;7.73;;;;;;;7.64;82.09;100160.78;4961586;28;20202;-82
2022/04/25 03:53:24;;;;;;;8.13;6.93;;;;;;;7.64;82.45;100160.78;4977838;28;20616;-82
2022/04/25 03:58:36;;;;;;;8.60;7.33;;;;;;;7.62;82.11;100167.94;4964158;28;20203;-81
2022/04/25 04:01:03;;;;;;;7.90;6.93;;;;;;;7.61;82.55;100173.34;4960487;28;20204;-81
2022/04/25 04:03:32;;;;;;;10.70;7.90;;;;;;;7.62;82.68;100177.69;4970477;28;20230;-81
2022/04/25 04:05:58;;;;;;;9.13;8.00;;;;;;;7.61;82.79;100170.69;4972282;28;20291;-82
2022/04/25 04:08:25;;;;;;;9.00;7.80;;;;;;;7.62;83.40;100183.00;4970807;28;20686;-81
2022/04/25 04:10:53;;;;;;;11.53;8.13;;;;;;;7.60;83.37;100183.09;4968040;28;20208;-80
2022/04/25 04:13:20;;;;;;;9.13;8.13;;;;;;;7.60;83.02;100179.59;4971889;28;20232;-80
2022/04/25 04:15:46;;;;;;;11.50;8.10;;;;;;;7.60;82.75;100179.59;4967831;28;20236;-80
2022/04/25 04:18:13;;;;;;;10.30;7.97;;;;;;;7.58;83.46;100182.31;4963326;28;20790;-81
2022/04/25 04:20:39;;;;;;;9.87;8.37;;;;;;;7.57;83.29;100185.06;4974275;28;20216;-80
2022/04/25 04:23:06;;;;;;;9.77;8.50;;;;;;;7.57;83.99;100190.34;4963327;28;20233;-81
2022/04/25 04:25:33;;;;;;;12.10;9.07;;;;;;;7.58;83.75;100194.72;4967005;28;20220;-80
2022/04/25 04:28:02;;;;;;;11.00;9.10;;;;;;;7.55;83.04;100195.75;4964330;28;20200;-81
2022/04/25 04:30:29;;;;;;;11.87;9.67;;;;;;;7.55;84.17;100198.38;4964327;28;20712;-80
2022/04/25 04:32:56;;;;;;;12.67;9.77;;;;;;;7.53;83.54;100202.91;4969547;28;20223;-80
2022/04/25 04:38:24;;;;;;;12.90;9.23;;;;;;;7.52;83.77;100203.03;4924601;29;20256;-79
2022/04/25 04:40:50;;;;;;;10.20;8.53;;;;;;;7.53;84.31;100216.16;4922223;29;20206;-80
2022/04/25 04:43:20;;;;;;;10.77;9.20;;;;;;;7.54;84.31;100211.72;4942297;28;20490;-80
2022/04/25 04:45:47;;;;;;;11.40;8.83;;;;;;;7.53;84.30;100221.47;4964723;28;20201;-80
2022/04/25 04:48:14;;;;;;;10.03;8.73;;;;;;;7.54;84.86;100223.19;4957384;28;20319;-79
2022/04/25 04:50:43;;;;;;;10.57;8.87;;;;;;;7.53;83.96;100221.47;4968545;28;20298;-80
2022/04/25 04:53:09;;;;;;;11.37;9.10;;;;;;;7.55;84.24;100218.72;4964904;28;20227;-80
2022/04/25 04:55:36;;;;;;;11.43;9.00;;;;;;;7.55;84.32;100229.34;4963913;28;20233;-79
2022/04/25 04:58:03;;;;;;;10.40;9.30;;;;;;;7.56;84.24;100223.94;4961771;28;20201;-79
2022/04/25 05:00:31;;;;;;;11.67;9.23;;;;;;;7.57;85.17;100230.09;4963763;28;20667;-80
2022/04/25 05:02:58;;;;;;;11.20;8.80;;;;;;;7.56;84.56;100231.91;4966664;28;20635;-79
2022/04/25 05:05:25;;;;;;;10.70;9.07;;;;;;;7.56;84.75;100234.56;4964869;28;20204;-82
2022/04/25 05:07:51;;;;;;;11.23;9.20;;;;;;;7.56;84.23;100239.84;4964801;28;20671;-82
2022/04/25 05:10:18;;;;;;;12.43;9.17;;;;;;;7.55;84.81;100237.28;4961507;28;20303;-84
2022/04/25 05:12:49;;;;;;;11.77;8.90;;;;;;;7.54;84.49;100244.38;4964599;28;20206;-84
2022/04/25 05:15:16;;;;;;;13.13;9.90;;;;;;;7.51;84.99;100244.59;4956279;28;20208;-83
2022/04/25 05:17:48;;;;;;;12.63;10.50;;;;;;;7.50;84.92;100242.00;4966879;28;20224;-84
2022/04/25 05:20:15;;;;;;;15.77;10.97;;;;;;;7.48;84.72;100251.84;4974286;28;20196;-83
2022/04/25 05:22:44;;;;;;;15.80;11.00;;;;;;;7.47;85.16;100247.50;4970472;28;20207;-83
2022/04/25 05:25:12;;;;;;;15.90;10.90;;;;;;;7.44;84.98;100245.88;4968617;28;20220;-82
2022/04/25 05:27:39;;;;;;;14.10;11.03;;;;;;;7.43;85.72;100244.16;4968964;28;20291;-83
2022/04/25 05:30:07;;;;;;;18.00;10.63;;;;;;;7.42;85.07;100249.53;4973934;28;20208;-83
2022/04/25 05:32:48;;;;;;;14.97;9.47;;;;;;;7.42;85.44;100254.84;4972891;28;20215;-84
2022/04/25 05:35:15;;;;;;;18.77;10.20;;;;;;;7.41;85.66;100258.41;4973037;28;20623;-83
2022/04/25 05:37:43;;;;;;;13.70;9.93;;;;;;;7.40;85.62;100254.06;4973020;28;20223;-83
2022/04/25 05:40:11;;;;;;;15.90;9.67;;;;;;;7.41;85.81;100259.28;4973159;28;20638;-83
2022/04/25 05:42:40;;;;;;;15.23;9.40;;;;;;;7.43;85.99;100262.69;4973096;28;20263;-82
2022/04/25 05:45:08;;;;;;;11.87;9.40;;;;;;;7.44;85.83;100256.47;4953644;28;20221;-81
2022/04/25 05:47:34;;;;;;;11.80;8.70;;;;;;;7.45;86.09;100258.16;4952534;29;20219;-82
2022/04/25 05:52:48;;;;;;;10.87;8.03;;;;;;;7.45;86.29;100266.13;4953768;29;20208;-82
2022/04/25 05:55:15;;;;;;;10.27;7.07;;;;;;;7.45;86.62;100259.97;4953346;28;20235;-82
2022/04/25 05:57:42;;;;;;;8.83;6.40;;;;;;;7.44;86.56;100264.41;4953242;29;20201;-82
2022/04/25 06:00:10;;;;;;;8.97;7.63;;;;;;;7.43;86.13;100270.66;4952831;29;20628;-81
2022/04/25 06:02:37;;;;;;;9.97;7.40;;;;;;;7.43;86.22;100269.78;4952823;29;20732;-81
2022/04/25 06:05:06;;;;;;;9.10;7.43;;;;;;;7.43;86.08;100275.94;4952983;29;20641;-82
2022/04/25 06:07:33;;;;;;;9.10;7.17;;;;;;;7.46;86.67;100277.56;4953219;29;20247;-83
2022/04/25 06:10:00;;;;;;;8.07;6.77;;;;;;;7.47;87.05;100285.44;4953623;29;20216;-82
2022/04/25 06:12:26;;;;;;;9.20;7.00;;;;;;;7.47;86.74;100292.53;4962352;28;20658;-84
2022/04/25 06:14:53;;;;;;;8.57;6.60;;;;;;;7.49;86.36;100293.31;4973753;28;20310;-84
2022/04/25 06:17:20;;;;;;;8.93;6.70;;;;;;;7.48;86.56;100284.50;4972592;28;20618;-84
2022/04/25 06:19:46;;;;;;;8.20;7.33;;;;;;;7.50;86.49;100297.66;4973598;28;20658;-83
2022/04/25 06:22:14;;;;;;;8.87;6.73;;;;;;;7.51;86.92;100299.38;4972962;28;20244;-84
2022/04/25 06:24:41;;;;;;;8.50;6.37;;;;;;;7.51;86.67;100300.22;4998964;23;20243;-71
2022/04/25 06:27:09;;;;;;;7.93;6.77;;;;;;;7.51;87.03;100300.22;4989088;28;20203;-72
2022/04/25 06:29:36;;;;;;;7.23;6.10;;;;;;;7.52;86.57;100298.44;4989411;28;20203;-72
2022/04/25 06:32:05;;;;;;;8.47;5.57;;;;;;;7.50;87.24;100301.16;4989290;28;20707;-71
2022/04/25 06:34:31;;;;;;;7.27;6.13;;;;;;;7.49;86.60;100294.16;4989732;28;20262;-71
2022/04/25 06:36:58;;;;;;;9.73;5.73;;;;;;;7.48;86.59;100305.69;4989443;28;20302;-72
2022/04/25 06:39:26;;;;;;;6.80;5.00;;;;;;;7.47;86.85;100298.69;5011728;23;20235;-73
2022/04/25 06:41:52;;;;;;;6.73;5.67;;;;;;;7.47;86.41;100309.28;4988328;28;20212;-72
2022/04/25 06:44:19;;;;;;;7.53;5.77;;;;;;;7.47;87.05;100305.78;4988660;28;20203;-71
2022/04/25 06:46:45;;;;;;;7.40;5.77;;;;;;;7.47;86.91;100311.94;4988751;28;20230;-73
2022/04/25 06:49:23;;;;;;;6.60;5.63;;;;;;;7.48;86.31;100316.28;4988658;28;20227;-72
2022/04/25 06:51:50;;;;;;;7.37;6.23;;;;;;;7.47;87.07;100313.72;4988922;28;20265;-73
2022/04/25 06:54:17;;;;;;;8.60;7.23;;;;;;;7.48;87.11;100313.66;4988917;28;20218;-73
2022/04/25 06:56:45;;;;;;;6.73;6.07;;;;;;;7.51;87.26;100312.63;4988525;28;20704;-73
2022/04/25 06:59:11;;;;;;;7.10;6.10;;;;;;;7.54;87.09;100315.06;4992602;28;20880;-73
2022/04/25 07:01:39;;;;;;;7.27;6.37;;;;;;;7.53;86.78;100311.56;4993246;28;20214;-73
2022/04/25 07:04:06;;;;;;;9.70;7.30;;;;;;;7.55;86.56;100315.00;4993052;28;20207;-72
2022/04/25 07:06:32;;;;;;;7.70;6.73;;;;;;;7.55;87.14;100316.78;4992503;28;20238;-73
2022/04/25 07:08:59;;;;;;;8.47;6.93;;;;;;;7.52;87.02;100323.13;4992783;28;20227;-73
2022/04/25 07:11:25;;;;;;;10.77;7.63;;;;;;;7.52;86.35;100328.44;4992608;28;20204;-73
2022/04/25 07:13:55;;;;;;;9.37;7.77;;;;;;;7.53;86.79;100319.53;4993112;28;20228;-73
2022/04/25 07:16:24;;;;;;;8.87;7.00;;;;;;;7.54;86.55;100329.19;4992823;28;20542;-71
2022/04/25 07:18:50;;;;;;;9.03;7.83;;;;;;;7.53;86.79;100327.47;4992670;28;20233;-73
2022/04/25 07:29:31;;;;;;;10.20;8.10;;;;;;;7.49;86.61;100341.84;4992482;28;20266;-73
2022/04/25 07:31:57;;;;;;;8.83;7.93;;;;;;;7.49;87.01;100344.50;4992534;28;20568;-72
2022/04/25 07:34:24;;;;;;;9.67;8.30;;;;;;;7.49;86.52;100336.56;4992348;28;20211;-70
2022/04/25 07:36:53;;;;;;;8.93;7.47;;;;;;;7.51;87.10;100342.63;4991936;28;20740;-73
2022/04/25 07:39:19;;;;;;;9.90;7.63;;;;;;;7.52;86.87;100340.84;4991538;28;20245;-73
2022/04/25 07:41:46;;;;;;;9.80;7.87;;;;;;;7.54;87.15;100342.44;4992445;28;20972;-73
2022/04/25 07:44:12;;;;;;;7.33;6.23;;;;;;;7.56;87.42;100337.03;4991838;28;20203;-72
2022/04/25 07:46:41;;;;;;;9.60;7.30;;;;;;;7.59;87.33;100343.03;4992100;28;20207;-73
2022/04/25 07:49:09;;;;;;;8.60;7.33;;;;;;;7.63;87.42;100351.69;4992016;28;20231;-72
2022/04/25 07:51:35;;;;;;;8.73;6.13;;;;;;;7.67;88.01;100347.91;4992022;28;20222;-73
2022/04/25 07:54:04;;;;;;;8.47;7.37;;;;;;;7.70;87.94;100339.81;4992038;28;20215;-72
2022/04/25 07:56:31;;;;;;;10.60;7.17;;;;;;;7.74;87.82;100345.75;4991538;28;20309;-73
2022/04/25 07:58:58;;;;;;;8.83;7.57;;;;;;;7.78;87.09;100349.97;4992216;28;20239;-73
2022/04/25 08:01:25;;;;;;;8.27;7.30;;;;;;;7.83;87.42;100346.13;4992404;28;20793;-70
2022/04/25 08:03:53;;;;;;;9.50;8.60;;;;;;;7.88;87.81;100351.97;4992124;28;20363;-72
2022/04/25 08:06:20;;;;;;;9.00;8.10;;;;;;;7.89;87.88;100356.34;4991721;28;20207;-72
2022/04/25 08:08:47;;;;;;;9.80;8.80;;;;;;;7.91;87.27;100358.91;4990996;28;20228;-70
2022/04/25 08:11:13;;;;;;;10.90;9.13;;;;;;;7.94;86.85;100364.03;4991490;28;20586;-72
2022/04/25 08:19:09;;;;;;;10.87;8.30;;;;;;;8.02;87.25;100369.78;4991429;28;20223;-72
2022/04/25 08:21:36;;;;;;;10.00;8.00;;;;;;;8.05;86.38;100368.75;4991421;28;20238;-72
2022/04/25 08:24:03;;;;;;;10.03;7.77;;;;;;;8.05;86.50;100366.09;4991602;28;20207;-73
2022/04/25 08:26:30;;;;;;;10.50;8.40;;;;;;;8.05;86.19;100382.03;4991373;28;20214;-73
2022/04/25 08:28:56;;;;;;;9.30;8.37;;;;;;;8.06;86.51;100371.28;4991141;28;20302;-72
2022/04/25 08:31:23;;;;;;;11.47;8.17;;;;;;;8.10;86.49;100391.41;4991560;28;20211;-72
2022/04/25 08:33:49;;;;;;;11.57;8.00;;;;;;;8.11;85.80;100386.94;4991399;28;20234;-73
2022/04/25 08:36:18;;;;;;;8.90;7.90;;;;;;;8.12;85.82;100384.22;4990944;28;20207;-71
2022/04/25 08:38:45;;;;;;;8.77;7.47;;;;;;;8.13;86.38;100391.22;4990545;28;20451;-72
2022/04/25 08:41:12;;;;;;;10.63;9.10;;;;;;;8.14;85.55;100394.75;4991304;28;20581;-72
2022/04/25 08:43:39;;;;;;;10.53;9.43;;;;;;;8.16;85.74;100400.81;4991125;28;20294;-71
2022/04/25 08:46:07;;;;;;;12.83;9.87;;;;;;;8.15;86.12;100401.75;4991137;28;20207;-71
2022/04/25 08:48:34;;;;;;;11.03;9.70;;;;;;;8.15;86.18;100407.91;4990806;28;20223;-72
2022/04/25 08:51:01;;;;;;;11.27;9.53;;;;;;;8.15;85.45;100404.41;4991197;28;20212;-70
2022/04/25 08:53:31;;;;;;;12.03;9.73;;;;;;;8.16;85.15;100401.66;4991083;28;20210;-71
2022/04/25 08:55:58;;;;;;;11.83;9.70;;;;;;;8.19;86.00;100412.13;4991021;28;20695;-72
2022/04/25 08:58:25;;;;;;;11.57;10.17;;;;;;;8.21;84.83;100417.34;4990377;28;20759;-72
2022/04/25 09:00:51;;;;;;;12.37;10.17;;;;;;;8.22;85.54;100417.25;4991257;28;20366;-72
2022/04/25 09:03:18;;;;;;;13.43;10.70;;;;;;;8.24;84.82;100420.63;4991066;28;20231;-73
2022/04/25 09:05:46;;;;;;;11.07;9.60;;;;;;;8.25;85.69;100419.69;4990586;28;20320;-72
2022/04/25 09:08:12;;;;;;;16.20;11.77;;;;;;;8.26;85.03;100425.84;4990611;28;20203;-72
2022/04/25 09:10:43;;;;;;;18.13;13.37;;;;;;;8.26;84.97;100437.31;4990824;28;20207;-71
2022/04/25 09:13:11;;;;;;;14.60;11.40;;;;;;;8.27;84.61;100436.38;4990366;28;20207;-72
2022/04/25 09:15:38;;;;;;;14.83;12.87;;;;;;;8.27;84.36;100439.03;4990590;28;20222;-72
2022/04/25 09:18:05;;;;;;;18.93;14.17;;;;;;;8.28;84.96;100443.41;4990202;28;20231;-72
2022/04/25 09:20:32;;;;;;;18.77;15.00;;;;;;;8.30;84.88;100441.53;4990270;28;20208;-72
2022/04/25 09:22:59;;;;;;;18.20;13.40;;;;;;;8.31;84.81;100448.53;4990607;28;20208;-72
2022/04/25 09:25:26;;;;;;;15.10;12.03;;;;;;;8.33;84.89;100452.00;4990526;28;20212;-70
2022/04/25 09:28:11;;;;;;;16.27;13.60;;;;;;;8.39;84.97;100448.16;4989993;28;20207;-72
2022/04/25 09:30:38;;;;;;;17.47;13.00;;;;;;;8.43;84.11;100448.81;4990526;28;20211;-72
2022/04/25 09:33:21;;;;;;;16.10;12.40;;;;;;;8.48;84.95;100452.06;4990458;28;20203;-72
2022/04/25 09:35:54;;;;;;;14.67;13.10;;;;;;;8.52;84.39;100448.28;4990209;28;20203;-72
2022/04/25 09:38:29;;;;;;;16.70;13.67;;;;;;;8.59;84.53;100454.97;4989388;28;20796;-72
2022/04/25 09:40:56;;;;;;;15.63;12.80;;;;;;;8.63;84.39;100453.81;4990297;28;20249;-72
2022/04/25 09:43:30;;;;;;;17.77;14.67;;;;;;;8.66;83.80;100456.28;4990141;28;20204;-73
2022/04/25 09:46:00;;;;;;;14.43;12.73;;;;;;;8.68;83.61;100457.06;4989936;28;20207;-72
2022/04/25 09:48:27;;;;;;;17.13;13.07;;;;;;;8.71;83.18;100462.19;4989447;28;20220;-73
2022/04/25 09:51:02;;;;;;;13.53;11.60;;;;;;;8.75;83.09;100469.06;4989640;28;20585;-68
2022/04/25 09:53:44;;;;;;;15.73;11.50;;;;;;;8.78;83.95;100466.19;4989729;28;20214;-68
2022/04/25 09:56:13;;;;;;;15.97;11.30;;;;;;;8.79;82.71;100467.03;4988106;28;20276;-68
2022/04/25 09:58:42;;;;;;;18.03;12.93;;;;;;;8.78;83.06;100468.84;4989607;28;20286;-69
2022/04/25 10:01:11;;;;;;;14.37;11.90;;;;;;;8.80;83.01;100472.25;4988916;28;20208;-68
2022/04/25 10:03:38;;;;;;;12.87;10.00;;;;;;;8.81;83.20;100478.44;4989489;28;20207;-68
2022/04/25 10:06:05;;;;;;;13.43;10.47;;;;;;;8.81;82.64;100473.13;4989623;28;20204;-68
2022/04/25 10:08:34;;;;;;;11.67;10.07;;;;;;;8.81;82.51;100476.63;4989854;28;20258;-69
2022/04/25 10:11:02;;;;;;;12.87;9.63;;;;;;;8.81;82.15;100476.63;4989368;28;20642;-69
2022/04/25 10:13:31;;;;;;;11.67;8.93;;;;;;;8.81;81.90;100473.13;4989692;28;20394;-68
2022/04/25 10:16:00;;;;;;;9.73;7.97;;;;;;;8.77;81.23;100485.75;4989155;28;20211;-69
2022/04/25 10:18:28;;;;;;;9.87;7.40;;;;;;;8.76;82.19;100488.50;4989187;28;20982;-69
2022/04/25 10:20:55;;;;;;;9.47;7.67;;;;;;;8.76;81.52;100493.81;4989312;28;20211;-69
2022/04/25 10:23:21;;;;;;;9.90;8.10;;;;;;;8.77;82.24;100493.72;4989494;28;20204;-72
2022/04/25 10:25:50;;;;;;;11.23;8.97;;;;;;;8.79;81.57;100489.16;4989153;28;20216;-72
2022/04/25 10:28:20;;;;;;;11.20;8.53;;;;;;;8.84;81.88;100491.53;4989057;28;20526;-72
2022/04/25 10:30:50;;;;;;;11.07;8.70;;;;;;;8.87;81.81;100494.88;4989647;28;20247;-70
2022/04/25 10:33:20;;;;;;;10.17;8.23;;;;;;;8.90;81.22;100494.69;4988689;28;20227;-72
2022/04/25 10:35:48;;;;;;;10.20;7.87;;;;;;;8.94;81.31;100495.38;4989632;28;20649;-72
2022/04/25 10:38:50;;;;;;;9.47;7.93;;;;;;;8.96;81.31;100499.63;4988010;28;20231;-72
2022/04/25 10:44:12;;;;;;;8.73;6.97;;;;;;;9.00;80.67;100506.47;4988887;28;20365;-72
2022/04/25 10:47:12;;;;;;;9.30;7.20;;;;;;;9.00;80.77;100503.81;4988768;28;20677;-69
2022/04/25 10:49:42;;;;;;;10.37;7.73;;;;;;;9.02;81.11;100507.25;4988773;28;20419;-72
2022/04/25 10:52:43;;;;;;;9.50;8.33;;;;;;;9.08;80.93;100505.19;4988986;28;20672;-72
2022/04/25 10:55:14;;;;;;;9.00;7.70;;;;;;;9.13;80.86;100513.75;4989051;28;20308;-72
2022/04/25 10:58:12;;;;;;;8.63;7.30;;;;;;;9.13;81.00;100516.41;4988671;28;20230;-72
2022/04/25 11:00:57;;;;;;;12.43;7.80;;;;;;;9.12;80.90;100517.34;4988735;28;20238;-72
2022/04/25 11:03:31;;;;;;;9.10;7.20;;;;;;;9.11;80.52;100511.19;4989144;28;20207;-72
2022/04/25 11:06:02;;;;;;;10.73;7.43;;;;;;;9.12;80.16;100512.03;4988947;28;20710;-70
2022/04/25 11:08:37;;;;;;;12.57;8.13;;;;;;;9.13;79.91;100519.91;4988566;28;20235;-72
2022/04/25 11:11:13;;;;;;;11.47;7.83;;;;;;;9.13;80.26;100522.56;4988733;28;20674;-71
2022/04/25 11:14:14;;;;;;;10.00;8.50;;;;;;;9.13;80.20;100516.41;4988953;28;20226;-72
2022/04/25 11:16:41;;;;;;;14.07;9.37;;;;;;;9.16;79.73;100521.50;4988386;28;20218;-72
2022/04/25 11:19:11;;;;;;;12.37;9.23;;;;;;;9.19;80.15;100526.66;4988449;28;20231;-72
2022/04/25 11:21:46;;;;;;;13.23;8.90;;;;;;;9.21;79.83;100530.06;4988512;28;20648;-72
2022/04/25 11:24:30;;;;;;;11.63;8.60;;;;;;;9.24;80.43;100529.88;4988709;28;20700;-72
2022/04/25 11:26:59;;;;;;;14.97;8.90;;;;;;;9.26;79.84;100528.00;4988388;28;20601;-72
2022/04/25 11:29:26;;;;;;;15.93;8.73;;;;;;;9.28;79.94;100531.44;4988673;28;20227;-73
2022/04/25 11:31:52;;;;;;;10.13;7.70;;;;;;;9.31;80.06;100534.75;4988385;28;20698;-73
2022/04/25 11:34:22;;;;;;;9.43;6.80;;;;;;;9.35;79.96;100536.25;4988808;28;20219;-71
2022/04/25 11:36:51;;;;;;;11.30;7.30;;;;;;;9.38;79.22;100538.75;4988166;28;20575;-72
2022/04/25 11:42:06;;;;;;;11.93;7.60;;;;;;;9.40;79.28;100543.97;4988494;28;20219;-72
2022/04/25 11:44:33;;;;;;;10.30;7.30;;;;;;;9.43;79.31;100543.78;4989574;28;20311;-72
2022/04/25 11:46:59;;;;;;;9.33;7.37;;;;;;;9.49;79.45;100551.41;4992052;28;20207;-72
2022/04/25 11:49:28;;;;;;;7.93;7.10;;;;;;;9.52;78.63;100553.84;4992107;28;20223;-72
2022/04/25 11:51:58;;;;;;;10.50;7.43;;;;;;;9.56;78.74;100547.41;4992417;28;20215;-72
2022/04/25 11:54:26;;;;;;;8.27;6.93;;;;;;;9.58;78.15;100547.31;4992493;28;20576;-72
2022/04/25 11:56:53;;;;;;;9.70;7.47;;;;;;;9.62;78.14;100551.50;4991957;28;20211;-72
2022/04/25 11:59:19;;;;;;;8.37;7.43;;;;;;;9.67;78.46;100550.25;4991896;28;20235;-72
2022/04/25 12:01:50;;;;;;;8.70;7.07;;;;;;;9.71;78.17;100558.91;4992427;28;20219;-72
2022/04/25 12:04:18;;;;;;;10.20;8.00;;;;;;;9.74;77.74;100559.59;4991831;28;20765;-72